LIBDLFOB [1]

Guest
Details From LIBD - topno
To LFOB - s
Flight Number 1
Tags None
Created
Modified
Stats Distance 804 nm / 1,488 km
Max Altitude 0 ft / 0 m
Waypoints 26
Social Downloads 1
Likes 0
Share

Download

Looking for another format? Having issues loading an existing format? Contact us
Advertisement - Login to hide

Notes

None

Route

LIBD VIE RUPAX ERPOG ARSOB NUTRO MASEG ANC BAKEP DITUM GIPUK LUMAV NEVMO RIDVA TZO SRN IXORA ARLES PUNSA SOSAL VADEM BIBOT IBODI GIVRI TINIL LFOB

ID Type Via Altitude (ft/m) Position (lat/lon) Dist (leg/tot) Name
O LIBD APT - 0 / 0 41.13820 / 16.76500 - / 0 nm
VIE VOR - 0 / 0 41.91290 / 16.04910 56 / 56 nm VIESTE VOR-DME
RUPAX FIX - 0 / 0 42.30070 / 15.47160 34 / 91 nm
ERPOG FIX - 0 / 0 42.47830 / 15.20250 16 / 107 nm
ARSOB FIX - 0 / 0 42.67920 / 14.89620 18 / 125 nm
NUTRO FIX - 0 / 0 43.16000 / 14.14920 43 / 169 nm
MASEG FIX - 0 / 0 43.41290 / 13.74930 23 / 192 nm
ANC VOR - 0 / 0 43.58640 / 13.47110 15 / 208 nm ANCONA VOR-DME
BAKEP FIX - 0 / 0 44.17690 / 12.59470 51 / 260 nm
DITUM FIX - 0 / 0 44.40590 / 12.24710 20 / 280 nm
GIPUK FIX - 0 / 0 44.58860 / 11.96670 16 / 296 nm
LUMAV FIX - 0 / 0 44.81450 / 11.61630 20 / 317 nm
NEVMO FIX - 0 / 0 44.89730 / 11.38970 10 / 327 nm
RIDVA FIX - 0 / 0 45.16570 / 10.64210 35 / 363 nm
TZO VOR - 0 / 0 45.55920 / 9.50710 53 / 416 nm TREZZO VOR-DME
SRN VOR - 0 / 0 45.64600 / 9.02160 21 / 437 nm SARONNO VOR-DME
IXORA FIX - 0 / 0 45.83660 / 8.58890 21 / 459 nm
ARLES FIX - 0 / 0 45.92940 / 8.37500 10 / 469 nm
PUNSA FIX - 0 / 0 46.07860 / 8.02580 17 / 487 nm
SOSAL FIX - 0 / 0 46.55810 / 6.88440 55 / 542 nm
VADEM FIX - 0 / 0 46.72170 / 6.48360 19 / 561 nm
BIBOT FIX - 0 / 0 46.75140 / 6.41030 3 / 565 nm
IBODI FIX - 0 / 0 46.95360 / 5.90000 24 / 589 nm
GIVRI FIX - 0 / 0 47.29190 / 5.34220 30 / 619 nm
TINIL FIX - 0 / 0 47.58890 / 5.09860 20 / 640 nm
O LFOB APT - 0 / 0 49.45440 / 2.11280 163 / 803 nm

Altitude Profile

Advertisement - Login to hide

Weather


0- 5 10 15 20 25 30 35+ Temperature / °C

Clouds and Precipitation
Forecast for 2021-03-22 12:00 UTC. Updated 2 months ago

Ground ~20,000 ft ~40,000 ft Winds

LIBD

Details ICAO LIBD (BRI)
Name Bari-Palese "Karol Wojtyla"
Region Italy
Timezone Europe/Rome (UTC+2.0)
Stats Elevation 173 ft / 53 m (AMSL)
Location 41.137900° 16.758300°
Runways 1
Magnetic Variation 4.086° E

METAR

LIBD 131420Z 12011KT 9999 SCT040 19/12 Q1008 R07/150095

Decode

TAF

TAF LIBD 131100Z 1312/1412 24008KT 9999 SCT030 TEMPO 1312/1315 RA= TAF LIBP 131100Z 1312/1412 VRB06KT 9999 SCT030 TEMPO 1312/1316 RA BECMG 1318/1320 22012KT

Decode

Departure Runways

ID Width Length Bearing (true/mag) Surface Threshold Overrun Markings Lighting
07 148 ft / 45 m 9,260 ft / 2,823 m 69.40° / 65.31° ASPHALT 1,240 ft / 378 m 0 ft / 0 m PREC-APP CENTERLINE EDGE THRESHOLD ALSF-II REIL-OMNI
25 148 ft / 45 m 9,260 ft / 2,823 m 249.42° / 245.33° ASPHALT 0 ft / 0 m 0 ft / 0 m PREC-APP CENTERLINE EDGE THRESHOLD SALS REIL-OMNI

LFOB

Details ICAO LFOB (BVA)
Name Beauvais Tille
Region France
Timezone Europe/Paris (UTC+2.0)
Stats Elevation 359 ft / 109 m (AMSL)
Location 49.456000° 2.118930°
Runways 2
Magnetic Variation 0.938° E

METAR

LFOB 131430Z AUTO 24005KT 190V300 CAVOK 15/04 Q1006 TEMPO 3000 SHRA BKN025CB

Decode

TAF

TAF TAF LFOB 131100Z 1312/1412 21007KT 9999 BKN035 TEMPO 1315/1321 3000 SHRA BKN025CB PROB30 TEMPO 1315/1321 TSRA TEMPO 1403/1412 3000 RA BKN005 BKN015

Decode

Destination Runways

ID Width Length Bearing (true/mag) Surface Threshold Overrun Markings Lighting
04 59 ft / 18 m 2,320 ft / 707 m 41.41° / 40.47° ASPHALT 0 ft / 0 m 0 ft / 0 m VISUAL
12 148 ft / 45 m 7,952 ft / 2,424 m 123.73° / 122.80° ASPHALT 144 ft / 44 m 0 ft / 0 m PREC-APP CENTERLINE EDGE THRESHOLD ALSF-II TDZ
22 59 ft / 18 m 2,320 ft / 707 m 221.41° / 220.48° ASPHALT 0 ft / 0 m 0 ft / 0 m VISUAL
30 148 ft / 45 m 7,952 ft / 2,424 m 303.75° / 302.82° ASPHALT 0 ft / 0 m 0 ft / 0 m PREC-APP CENTERLINE EDGE THRESHOLD ALSF-I

Approach Navaids

Runway Type Ident Frequency Range Bearing (true/mag) Slope Elevation
12 DME BVT 111.15 MHz 18 nm / 33 km - - 344 ft / 105 m (AMSL)
12 LOC-ILS BVT 111.15 MHz 18 nm / 33 km 123.75° / 122.81 ° - 359 ft / 109 m (AMSL)
12 GS BVT 111.15 MHz 10 nm / 19 km 123.75° / 122.81 ° 3.00° 359 ft / 109 m (AMSL)
30 DME BI 109.95 MHz 18 nm / 33 km - - 303 ft / 92 m (AMSL)
30 LOC-LOC BI 109.95 MHz 18 nm / 33 km 303.75° / 302.81 ° - 359 ft / 109 m (AMSL)

Popular Alternatives